sensor_id;sensor_type;location;lat;lon;timestamp;pressure;altitude;pressure_sealevel;temperature;humidity
78223;BME280;67497;53.058;21.618;2023-02-19T00:01:11;99565.47;;;22.51;35.23
78223;BME280;67497;53.058;21.618;2023-02-19T00:03:12;99567.56;;;22.44;35.27
78223;BME280;67497;53.058;21.618;2023-02-19T00:05:12;99564.16;;;22.42;35.35
78223;BME280;67497;53.058;21.618;2023-02-19T00:07:13;99550.13;;;22.37;35.50
78223;BME280;67497;53.058;21.618;2023-02-19T00:09:15;99566.75;;;22.32;35.48
78223;BME280;67497;53.058;21.618;2023-02-19T00:11:19;99569.06;;;22.35;35.43
78223;BME280;67497;53.058;21.618;2023-02-19T00:13:20;99573.91;;;22.28;35.59
78223;BME280;67497;53.058;21.618;2023-02-19T00:15:20;99581.34;;;22.22;35.65
78223;BME280;67497;53.058;21.618;2023-02-19T00:17:21;99575.41;;;22.19;35.53
78223;BME280;67497;53.058;21.618;2023-02-19T00:19:21;99564.75;;;22.16;35.74
78223;BME280;67497;53.058;21.618;2023-02-19T00:21:23;99559.66;;;22.13;35.57
78223;BME280;67497;53.058;21.618;2023-02-19T00:23:23;99569.38;;;22.10;35.55
78223;BME280;67497;53.058;21.618;2023-02-19T00:25:24;99569.63;;;22.09;35.71
78223;BME280;67497;53.058;21.618;2023-02-19T00:27:25;99575.06;;;22.03;35.69
78223;BME280;67497;53.058;21.618;2023-02-19T00:29:26;99566.38;;;22.00;35.62
78223;BME280;67497;53.058;21.618;2023-02-19T00:31:29;99572.81;;;22.00;35.68
78223;BME280;67497;53.058;21.618;2023-02-19T00:33:30;99564.28;;;21.95;35.91
78223;BME280;67497;53.058;21.618;2023-02-19T00:35:33;99565.41;;;21.94;35.82
78223;BME280;67497;53.058;21.618;2023-02-19T00:37:34;99560.81;;;21.88;35.79
78223;BME280;67497;53.058;21.618;2023-02-19T00:39:34;99567.91;;;21.84;35.88
78223;BME280;67497;53.058;21.618;2023-02-19T00:41:35;99558.34;;;21.80;35.89
78223;BME280;67497;53.058;21.618;2023-02-19T00:43:35;99566.13;;;21.78;36.01
78223;BME280;67497;53.058;21.618;2023-02-19T00:45:36;99569.41;;;21.75;35.75
78223;BME280;67497;53.058;21.618;2023-02-19T00:47:37;99550.84;;;21.69;35.73
78223;BME280;67497;53.058;21.618;2023-02-19T00:49:37;99556.69;;;21.68;35.97
78223;BME280;67497;53.058;21.618;2023-02-19T00:51:38;99557.50;;;21.68;35.89
78223;BME280;67497;53.058;21.618;2023-02-19T00:53:39;99566.97;;;21.67;35.77
78223;BME280;67497;53.058;21.618;2023-02-19T00:55:39;99550.84;;;21.58;36.01
78223;BME280;67497;53.058;21.618;2023-02-19T00:57:40;99558.13;;;21.59;35.87
78223;BME280;67497;53.058;21.618;2023-02-19T00:59:40;99546.59;;;21.55;35.92
78223;BME280;67497;53.058;21.618;2023-02-19T01:01:41;99551.31;;;21.55;36.24
78223;BME280;67497;53.058;21.618;2023-02-19T01:03:43;99548.69;;;21.48;36.14
78223;BME280;67497;53.058;21.618;2023-02-19T01:05:44;99557.03;;;21.48;35.92
78223;BME280;67497;53.058;21.618;2023-02-19T01:07:44;99558.38;;;21.45;36.05
78223;BME280;67497;53.058;21.618;2023-02-19T01:09:45;99544.31;;;21.40;36.03
78223;BME280;67497;53.058;21.618;2023-02-19T01:11:45;99560.78;;;21.42;36.02
78223;BME280;67497;53.058;21.618;2023-02-19T01:13:46;99552.06;;;21.38;36.07
78223;BME280;67497;53.058;21.618;2023-02-19T01:15:47;99553.38;;;21.36;36.11
78223;BME280;67497;53.058;21.618;2023-02-19T01:17:48;99559.59;;;21.38;35.88
78223;BME280;67497;53.058;21.618;2023-02-19T01:19:48;99559.69;;;21.31;36.01
78223;BME280;67497;53.058;21.618;2023-02-19T01:21:49;99567.19;;;21.31;35.96
78223;BME280;67497;53.058;21.618;2023-02-19T01:23:52;99568.53;;;21.28;35.88
78223;BME280;67497;53.058;21.618;2023-02-19T01:25:52;99569.00;;;21.25;36.06
78223;BME280;67497;53.058;21.618;2023-02-19T01:27:53;99564.16;;;21.21;35.99
78223;BME280;67497;53.058;21.618;2023-02-19T01:29:53;99569.50;;;21.22;35.71
78223;BME280;67497;53.058;21.618;2023-02-19T01:31:54;99563.56;;;21.19;35.89
78223;BME280;67497;53.058;21.618;2023-02-19T01:33:57;99565.25;;;21.20;36.21
78223;BME280;67497;53.058;21.618;2023-02-19T01:35:58;99562.94;;;21.17;35.96
78223;BME280;67497;53.058;21.618;2023-02-19T01:37:59;99568.16;;;21.13;35.97
78223;BME280;67497;53.058;21.618;2023-02-19T01:40:00;99565.38;;;21.13;35.91
78223;BME280;67497;53.058;21.618;2023-02-19T01:42:00;99572.75;;;21.08;35.99
78223;BME280;67497;53.058;21.618;2023-02-19T01:45:10;99573.59;;;21.08;35.94
78223;BME280;67497;53.058;21.618;2023-02-19T01:46:34;99580.47;;;21.06;36.11
78223;BME280;67497;53.058;21.618;2023-02-19T01:48:37;99575.00;;;20.99;36.17
78223;BME280;67497;53.058;21.618;2023-02-19T01:51:12;99574.16;;;20.99;36.00
78223;BME280;67497;53.058;21.618;2023-02-19T01:53:18;99574.63;;;20.96;36.31
78223;BME280;67497;53.058;21.618;2023-02-19T01:55:21;99573.16;;;20.93;36.10
78223;BME280;67497;53.058;21.618;2023-02-19T01:57:27;99576.19;;;20.92;36.08
78223;BME280;67497;53.058;21.618;2023-02-19T01:59:31;99577.28;;;20.91;36.01
78223;BME280;67497;53.058;21.618;2023-02-19T02:01:32;99577.75;;;20.87;35.96
78223;BME280;67497;53.058;21.618;2023-02-19T02:03:34;99575.59;;;20.90;35.97
78223;BME280;67497;53.058;21.618;2023-02-19T02:05:58;99581.63;;;20.86;36.21
78223;BME280;67497;53.058;21.618;2023-02-19T02:08:02;99577.41;;;20.84;36.22
78223;BME280;67497;53.058;21.618;2023-02-19T02:10:21;99568.06;;;20.78;36.10
78223;BME280;67497;53.058;21.618;2023-02-19T02:12:21;99579.66;;;20.75;36.44
78223;BME280;67497;53.058;21.618;2023-02-19T02:14:25;99566.22;;;20.72;36.22
78223;BME280;67497;53.058;21.618;2023-02-19T02:30:32;99587.09;;;20.63;36.26
78223;BME280;67497;53.058;21.618;2023-02-19T02:32:49;99578.63;;;20.58;36.06
78223;BME280;67497;53.058;21.618;2023-02-19T02:34:59;99580.34;;;20.59;36.46
78223;BME280;67497;53.058;21.618;2023-02-19T02:37:01;99566.75;;;20.51;36.14
78223;BME280;67497;53.058;21.618;2023-02-19T02:39:07;99575.44;;;20.55;36.37
78223;BME280;67497;53.058;21.618;2023-02-19T02:41:10;99577.63;;;20.53;36.23
78223;BME280;67497;53.058;21.618;2023-02-19T02:43:12;99576.56;;;20.54;36.47
78223;BME280;67497;53.058;21.618;2023-02-19T02:47:51;99565.97;;;20.44;36.25
78223;BME280;67497;53.058;21.618;2023-02-19T02:49:54;99563.81;;;20.46;36.68
78223;BME280;67497;53.058;21.618;2023-02-19T02:52:04;99570.47;;;20.45;36.45
78223;BME280;67497;53.058;21.618;2023-02-19T02:54:31;99569.84;;;20.43;36.42
78223;BME280;67497;53.058;21.618;2023-02-19T02:56:51;99561.13;;;20.40;36.70
78223;BME280;67497;53.058;21.618;2023-02-19T02:58:53;99570.31;;;20.40;36.48
78223;BME280;67497;53.058;21.618;2023-02-19T03:01:00;99571.41;;;20.39;36.58
78223;BME280;67497;53.058;21.618;2023-02-19T03:03:21;99575.50;;;20.37;36.27
78223;BME280;67497;53.058;21.618;2023-02-19T03:05:24;99560.59;;;20.31;36.72
78223;BME280;67497;53.058;21.618;2023-02-19T03:07:55;99574.88;;;20.35;36.59
78223;BME280;67497;53.058;21.618;2023-02-19T03:09:58;99572.56;;;20.32;36.43
78223;BME280;67497;53.058;21.618;2023-02-19T03:12:00;99579.22;;;20.31;36.70
78223;BME280;67497;53.058;21.618;2023-02-19T03:14:21;99573.91;;;20.29;36.42
78223;BME280;67497;53.058;21.618;2023-02-19T03:16:43;99572.00;;;20.23;36.61
78223;BME280;67497;53.058;21.618;2023-02-19T03:19:04;99590.63;;;20.22;36.78
78223;BME280;67497;53.058;21.618;2023-02-19T03:21:19;99596.00;;;20.24;36.69
78223;BME280;67497;53.058;21.618;2023-02-19T03:23:22;99583.13;;;20.23;36.63
78223;BME280;67497;53.058;21.618;2023-02-19T03:25:46;99602.47;;;20.18;36.64
78223;BME280;67497;53.058;21.618;2023-02-19T03:28:08;99593.50;;;20.16;36.76
78223;BME280;67497;53.058;21.618;2023-02-19T03:30:17;99596.28;;;20.16;36.82
78223;BME280;67497;53.058;21.618;2023-02-19T03:32:37;99591.41;;;20.11;36.80
78223;BME280;67497;53.058;21.618;2023-02-19T03:34:53;99601.84;;;20.16;36.38
78223;BME280;67497;53.058;21.618;2023-02-19T03:37:20;99596.13;;;20.11;36.75
78223;BME280;67497;53.058;21.618;2023-02-19T03:39:24;99592.09;;;20.07;36.65
78223;BME280;67497;53.058;21.618;2023-02-19T03:41:28;99587.78;;;20.11;36.62
78223;BME280;67497;53.058;21.618;2023-02-19T03:46:34;99591.03;;;20.08;36.71
78223;BME280;67497;53.058;21.618;2023-02-19T03:48:40;99587.41;;;20.07;36.60
78223;BME280;67497;53.058;21.618;2023-02-19T03:53:40;99587.84;;;20.04;36.93
78223;BME280;67497;53.058;21.618;2023-02-19T03:56:19;99578.06;;;20.02;36.73
78223;BME280;67497;53.058;21.618;2023-02-19T03:58:33;99565.31;;;19.94;37.02
78223;BME280;67497;53.058;21.618;2023-02-19T04:04:53;99565.31;;;19.94;36.78
78223;BME280;67497;53.058;21.618;2023-02-19T04:06:57;99570.03;;;19.94;36.85
78223;BME280;67497;53.058;21.618;2023-02-19T04:09:00;99567.09;;;19.89;36.88
78223;BME280;67497;53.058;21.618;2023-02-19T04:11:02;99580.53;;;19.92;36.80
78223;BME280;67497;53.058;21.618;2023-02-19T04:13:07;99562.44;;;19.83;37.00
78223;BME280;67497;53.058;21.618;2023-02-19T04:15:13;99578.22;;;19.89;36.77
78223;BME280;67497;53.058;21.618;2023-02-19T04:17:23;99569.72;;;19.84;36.97
78223;BME280;67497;53.058;21.618;2023-02-19T04:19:26;99571.41;;;19.85;36.70
78223;BME280;67497;53.058;21.618;2023-02-19T04:21:31;99575.03;;;19.85;36.91
78223;BME280;67497;53.058;21.618;2023-02-19T04:23:37;99570.19;;;19.81;36.94
78223;BME280;67497;53.058;21.618;2023-02-19T04:25:42;99576.34;;;19.83;36.81
78223;BME280;67497;53.058;21.618;2023-02-19T04:27:44;99567.41;;;19.81;36.86
78223;BME280;67497;53.058;21.618;2023-02-19T04:29:45;99563.38;;;19.77;36.91
78223;BME280;67497;53.058;21.618;2023-02-19T04:31:45;99557.81;;;19.77;36.89
78223;BME280;67497;53.058;21.618;2023-02-19T04:33:46;99556.75;;;19.78;36.93
78223;BME280;67497;53.058;21.618;2023-02-19T04:35:46;99548.00;;;19.74;37.06
78223;BME280;67497;53.058;21.618;2023-02-19T04:37:47;99553.56;;;19.74;36.79
78223;BME280;67497;53.058;21.618;2023-02-19T04:39:47;99551.25;;;19.71;36.74
78223;BME280;67497;53.058;21.618;2023-02-19T04:41:48;99555.50;;;19.74;37.19
78223;BME280;67497;53.058;21.618;2023-02-19T04:43:48;99556.59;;;19.73;36.93
78223;BME280;67497;53.058;21.618;2023-02-19T04:45:49;99538.66;;;19.68;36.92
78223;BME280;67497;53.058;21.618;2023-02-19T04:47:49;99559.38;;;19.73;36.93
78223;BME280;67497;53.058;21.618;2023-02-19T04:49:50;99554.28;;;19.69;36.70
78223;BME280;67497;53.058;21.618;2023-02-19T04:51:50;99557.25;;;19.68;36.64
78223;BME280;67497;53.058;21.618;2023-02-19T04:53:51;99559.22;;;19.67;36.85
78223;BME280;67497;53.058;21.618;2023-02-19T04:55:51;99570.94;;;19.69;36.87
78223;BME280;67497;53.058;21.618;2023-02-19T04:57:52;99559.88;;;19.63;36.92
78223;BME280;67497;53.058;21.618;2023-02-19T04:59:53;99557.97;;;19.63;36.96
78223;BME280;67497;53.058;21.618;2023-02-19T05:01:53;99550.72;;;19.62;37.10
78223;BME280;67497;53.058;21.618;2023-02-19T05:03:54;99553.72;;;19.61;36.66
78223;BME280;67497;53.058;21.618;2023-02-19T05:05:54;99539.06;;;19.54;36.92
78223;BME280;67497;53.058;21.618;2023-02-19T05:07:55;99543.91;;;19.58;36.95
78223;BME280;67497;53.058;21.618;2023-02-19T05:09:55;99552.66;;;19.62;36.81
78223;BME280;67497;53.058;21.618;2023-02-19T05:11:56;99544.78;;;19.59;36.81
78223;BME280;67497;53.058;21.618;2023-02-19T05:13:56;99537.13;;;19.54;36.95
78223;BME280;67497;53.058;21.618;2023-02-19T05:15:59;99545.63;;;19.59;37.03
78223;BME280;67497;53.058;21.618;2023-02-19T05:18:00;99539.28;;;19.52;37.00
78223;BME280;67497;53.058;21.618;2023-02-19T05:20:01;99533.09;;;19.50;37.18
78223;BME280;67497;53.058;21.618;2023-02-19T05:22:01;99537.59;;;19.51;36.94
78223;BME280;67497;53.058;21.618;2023-02-19T05:24:02;99543.16;;;19.51;36.92
78223;BME280;67497;53.058;21.618;2023-02-19T05:26:04;99547.00;;;19.50;37.00
78223;BME280;67497;53.058;21.618;2023-02-19T05:28:05;99534.25;;;19.43;36.79
78223;BME280;67497;53.058;21.618;2023-02-19T05:30:18;99539.38;;;19.46;37.13
78223;BME280;67497;53.058;21.618;2023-02-19T05:32:19;99543.81;;;19.47;37.10
78223;BME280;67497;53.058;21.618;2023-02-19T05:34:19;99539.56;;;19.44;36.95
78223;BME280;67497;53.058;21.618;2023-02-19T05:36:20;99545.28;;;19.49;36.97
78223;BME280;67497;53.058;21.618;2023-02-19T05:38:21;99541.91;;;19.47;37.03
78223;BME280;67497;53.058;21.618;2023-02-19T05:40:22;99531.03;;;19.46;37.15
78223;BME280;67497;53.058;21.618;2023-02-19T05:42:22;99515.94;;;19.35;37.02
78223;BME280;67497;53.058;21.618;2023-02-19T05:44:23;99528.69;;;19.43;36.91
78223;BME280;67497;53.058;21.618;2023-02-19T05:46:26;99535.94;;;19.44;37.11
78223;BME280;67497;53.058;21.618;2023-02-19T05:48:27;99521.06;;;19.38;36.81
78223;BME280;67497;53.058;21.618;2023-02-19T05:50:28;99516.75;;;19.36;37.22
78223;BME280;67497;53.058;21.618;2023-02-19T05:52:28;99526.13;;;19.41;37.04
78223;BME280;67497;53.058;21.618;2023-02-19T05:54:29;99518.06;;;19.33;37.12
78223;BME280;67497;53.058;21.618;2023-02-19T05:56:34;99520.22;;;19.38;36.90
78223;BME280;67497;53.058;21.618;2023-02-19T05:58:35;99519.16;;;19.32;37.13
78223;BME280;67497;53.058;21.618;2023-02-19T06:00:35;99508.50;;;19.29;36.89
78223;BME280;67497;53.058;21.618;2023-02-19T06:02:36;99514.69;;;19.31;36.95
78223;BME280;67497;53.058;21.618;2023-02-19T06:04:36;99521.50;;;19.35;37.13
78223;BME280;67497;53.058;21.618;2023-02-19T06:06:37;99518.38;;;19.25;37.09
78223;BME280;67497;53.058;21.618;2023-02-19T06:08:38;99519.38;;;19.31;36.95
78223;BME280;67497;53.058;21.618;2023-02-19T06:10:39;99524.06;;;19.30;36.82
78223;BME280;67497;53.058;21.618;2023-02-19T06:12:40;99523.47;;;19.28;37.18
78223;BME280;67497;53.058;21.618;2023-02-19T06:14:41;99527.56;;;19.26;37.16
78223;BME280;67497;53.058;21.618;2023-02-19T06:16:41;99532.03;;;19.27;37.20
78223;BME280;67497;53.058;21.618;2023-02-19T06:18:42;99539.06;;;19.29;37.05
78223;BME280;67497;53.058;21.618;2023-02-19T06:20:43;99541.44;;;19.26;37.11
78223;BME280;67497;53.058;21.618;2023-02-19T06:22:44;99538.91;;;19.24;37.08
78223;BME280;67497;53.058;21.618;2023-02-19T06:24:46;99533.19;;;19.19;36.90
78223;BME280;67497;53.058;21.618;2023-02-19T06:26:47;99541.88;;;19.23;36.97
78223;BME280;67497;53.058;21.618;2023-02-19T06:28:49;99546.13;;;19.25;37.11
78223;BME280;67497;53.058;21.618;2023-02-19T06:30:49;99546.84;;;19.21;37.00
78223;BME280;67497;53.058;21.618;2023-02-19T06:32:51;99546.22;;;19.19;37.25
78223;BME280;67497;53.058;21.618;2023-02-19T06:34:53;99539.19;;;19.16;36.94
78223;BME280;67497;53.058;21.618;2023-02-19T06:36:53;99557.09;;;19.20;37.06
78223;BME280;67497;53.058;21.618;2023-02-19T06:38:58;99542.19;;;19.15;37.14
78223;BME280;67497;53.058;21.618;2023-02-19T06:41:01;99554.31;;;19.20;37.15
78223;BME280;67497;53.058;21.618;2023-02-19T06:43:02;99541.31;;;19.14;37.23
78223;BME280;67497;53.058;21.618;2023-02-19T06:45:03;99544.75;;;19.16;37.30
78223;BME280;67497;53.058;21.618;2023-02-19T06:47:03;99550.06;;;19.18;37.22
78223;BME280;67497;53.058;21.618;2023-02-19T06:49:04;99551.53;;;19.20;36.89
78223;BME280;67497;53.058;21.618;2023-02-19T06:51:05;99548.00;;;19.31;36.77
78223;BME280;67497;53.058;21.618;2023-02-19T06:53:05;99556.50;;;19.36;36.80
78223;BME280;67497;53.058;21.618;2023-02-19T06:55:08;99559.47;;;19.41;36.84
78223;BME280;67497;53.058;21.618;2023-02-19T06:57:08;99561.94;;;19.49;36.78
78223;BME280;67497;53.058;21.618;2023-02-19T06:59:11;99568.16;;;19.69;36.22
78223;BME280;67497;53.058;21.618;2023-02-19T07:01:12;99555.97;;;19.71;36.23
78223;BME280;67497;53.058;21.618;2023-02-19T07:03:13;99584.09;;;19.81;36.11
78223;BME280;67497;53.058;21.618;2023-02-19T07:05:13;99575.28;;;19.84;35.95
78223;BME280;67497;53.058;21.618;2023-02-19T07:07:14;99569.72;;;19.84;36.00
78223;BME280;67497;53.058;21.618;2023-02-19T07:09:14;99571.19;;;19.86;35.88
78223;BME280;67497;53.058;21.618;2023-02-19T07:11:15;99577.28;;;19.95;35.91
78223;BME280;67497;53.058;21.618;2023-02-19T07:13:16;99568.25;;;19.99;35.81
78223;BME280;67497;53.058;21.618;2023-02-19T07:15:16;99570.31;;;20.04;35.58
78223;BME280;67497;53.058;21.618;2023-02-19T07:17:17;99564.69;;;20.10;35.14
78223;BME280;67497;53.058;21.618;2023-02-19T07:19:17;99573.78;;;20.17;35.57
78223;BME280;67497;53.058;21.618;2023-02-19T07:21:18;99578.66;;;20.22;34.87
78223;BME280;67497;53.058;21.618;2023-02-19T07:23:19;99561.31;;;20.26;35.13
78223;BME280;67497;53.058;21.618;2023-02-19T07:25:19;99572.56;;;20.32;35.09
78223;BME280;67497;53.058;21.618;2023-02-19T07:27:20;99586.09;;;20.46;34.72
78223;BME280;67497;53.058;21.618;2023-02-19T07:29:21;99577.50;;;20.48;34.82
78223;BME280;67497;53.058;21.618;2023-02-19T07:31:22;99584.66;;;20.55;35.10
78223;BME280;67497;53.058;21.618;2023-02-19T07:33:23;99584.66;;;20.55;34.51
78223;BME280;67497;53.058;21.618;2023-02-19T07:35:24;99573.53;;;20.55;35.02
78223;BME280;67497;53.058;21.618;2023-02-19T07:37:24;99570.13;;;20.53;35.11
78223;BME280;67497;53.058;21.618;2023-02-19T07:39:25;99573.53;;;20.55;34.78
78223;BME280;67497;53.058;21.618;2023-02-19T07:41:26;99585.91;;;20.59;34.92
78223;BME280;67497;53.058;21.618;2023-02-19T07:43:29;99575.69;;;20.53;34.93
78223;BME280;67497;53.058;21.618;2023-02-19T07:45:30;99577.88;;;20.51;34.89
78223;BME280;67497;53.058;21.618;2023-02-19T07:47:30;99568.88;;;20.49;34.81
78223;BME280;67497;53.058;21.618;2023-02-19T07:49:31;99579.19;;;20.49;34.82
78223;BME280;67497;53.058;21.618;2023-02-19T07:51:32;99574.97;;;20.46;34.88
78223;BME280;67497;53.058;21.618;2023-02-19T07:53:33;99578.81;;;20.45;35.06
78223;BME280;67497;53.058;21.618;2023-02-19T07:55:34;99570.31;;;20.40;35.05
78223;BME280;67497;53.058;21.618;2023-02-19T07:57:35;99574.19;;;20.39;34.96
78223;BME280;67497;53.058;21.618;2023-02-19T07:59:35;99575.88;;;20.40;35.20
78223;BME280;67497;53.058;21.618;2023-02-19T08:01:36;99585.78;;;20.36;35.34
78223;BME280;67497;53.058;21.618;2023-02-19T08:03:55;99577.28;;;20.31;35.36
78223;BME280;67497;53.058;21.618;2023-02-19T08:05:56;99576.06;;;20.27;35.48
78223;BME280;67497;53.058;21.618;2023-02-19T08:07:58;99593.38;;;20.29;35.28
78223;BME280;67497;53.058;21.618;2023-02-19T08:09:58;99584.63;;;20.25;35.37
78223;BME280;67497;53.058;21.618;2023-02-19T08:12:18;99588.56;;;20.18;35.14
78223;BME280;67497;53.058;21.618;2023-02-19T08:14:37;99579.00;;;20.14;35.33
78223;BME280;67497;53.058;21.618;2023-02-19T08:16:37;99597.97;;;20.17;35.36
78223;BME280;67497;53.058;21.618;2023-02-19T08:18:38;99588.50;;;20.24;35.18
78223;BME280;67497;53.058;21.618;2023-02-19T08:20:39;99596.16;;;20.29;35.34
78223;BME280;67497;53.058;21.618;2023-02-19T08:22:40;99587.19;;;20.27;35.13
78223;BME280;67497;53.058;21.618;2023-02-19T08:24:40;99598.69;;;20.31;35.21
78223;BME280;67497;53.058;21.618;2023-02-19T08:26:43;99589.03;;;20.33;34.72
78223;BME280;67497;53.058;21.618;2023-02-19T08:28:44;99592.78;;;20.39;34.84
78223;BME280;67497;53.058;21.618;2023-02-19T08:30:45;99593.94;;;20.49;34.71
78223;BME280;67497;53.058;21.618;2023-02-19T08:32:46;99592.47;;;20.47;34.88
78223;BME280;67497;53.058;21.618;2023-02-19T08:34:47;99604.75;;;20.57;34.50
78223;BME280;67497;53.058;21.618;2023-02-19T08:36:47;99602.22;;;20.56;34.50
78223;BME280;67497;53.058;21.618;2023-02-19T08:38:48;99598.09;;;20.58;34.55
78223;BME280;67497;53.058;21.618;2023-02-19T08:40:48;99599.81;;;20.59;34.67
78223;BME280;67497;53.058;21.618;2023-02-19T08:42:49;99601.28;;;20.62;34.66
78223;BME280;67497;53.058;21.618;2023-02-19T08:44:49;99608.75;;;20.61;34.89
78223;BME280;67497;53.058;21.618;2023-02-19T08:46:50;99612.88;;;20.59;34.74
78223;BME280;67497;53.058;21.618;2023-02-19T08:48:50;99614.59;;;20.60;34.64
78223;BME280;67497;53.058;21.618;2023-02-19T08:50:58;99622.69;;;20.61;34.80
78223;BME280;67497;53.058;21.618;2023-02-19T08:53:00;99612.00;;;20.58;34.61
78223;BME280;67497;53.058;21.618;2023-02-19T08:55:02;99613.72;;;20.59;34.45
78223;BME280;67497;53.058;21.618;2023-02-19T08:57:03;99609.09;;;20.53;34.88
78223;BME280;67497;53.058;21.618;2023-02-19T08:59:04;99617.44;;;20.53;34.75
78223;BME280;67497;53.058;21.618;2023-02-19T09:01:09;99604.25;;;20.49;35.01
78223;BME280;67497;53.058;21.618;2023-02-19T09:03:10;99613.66;;;20.48;34.61
78223;BME280;67497;53.058;21.618;2023-02-19T09:05:10;99615.97;;;20.51;34.98
78223;BME280;67497;53.058;21.618;2023-02-19T09:07:11;99612.34;;;20.50;34.78
78223;BME280;67497;53.058;21.618;2023-02-19T09:09:11;99612.94;;;20.52;34.70
78223;BME280;67497;53.058;21.618;2023-02-19T09:11:13;99628.31;;;20.55;34.79
78223;BME280;67497;53.058;21.618;2023-02-19T09:13:13;99613.81;;;20.53;34.75
78223;BME280;67497;53.058;21.618;2023-02-19T09:15:14;99626.19;;;20.57;34.77
78223;BME280;67497;53.058;21.618;2023-02-19T09:17:14;99633.34;;;20.64;34.53
78223;BME280;67497;53.058;21.618;2023-02-19T09:19:15;99619.66;;;20.63;34.36
78223;BME280;67497;53.058;21.618;2023-02-19T09:21:15;99624.75;;;20.66;34.30
78223;BME280;67497;53.058;21.618;2023-02-19T09:23:16;99628.16;;;20.68;34.25
78223;BME280;67497;53.058;21.618;2023-02-19T09:25:16;99632.78;;;20.74;34.66
78223;BME280;67497;53.058;21.618;2023-02-19T09:27:18;99635.81;;;20.72;34.29
78223;BME280;67497;53.058;21.618;2023-02-19T09:29:21;99637.66;;;20.78;34.55
78223;BME280;67497;53.058;21.618;2023-02-19T09:31:23;99626.59;;;20.72;34.61
78223;BME280;67497;53.058;21.618;2023-02-19T09:33:23;99627.47;;;20.72;34.63
78223;BME280;67497;53.058;21.618;2023-02-19T09:35:24;99627.47;;;20.72;34.49
78223;BME280;67497;53.058;21.618;2023-02-19T09:37:26;99633.03;;;20.72;34.51
78223;BME280;67497;53.058;21.618;2023-02-19T09:39:26;99637.34;;;20.68;34.67
78223;BME280;67497;53.058;21.618;2023-02-19T09:41:31;99639.06;;;20.69;34.61
78223;BME280;67497;53.058;21.618;2023-02-19T09:43:33;99633.94;;;20.66;34.73
78223;BME280;67497;53.058;21.618;2023-02-19T09:45:34;99634.88;;;20.60;34.51
78223;BME280;67497;53.058;21.618;2023-02-19T09:47:37;99646.25;;;20.59;34.56
78223;BME280;67497;53.058;21.618;2023-02-19T09:49:39;99654.00;;;20.57;34.56
78223;BME280;67497;53.058;21.618;2023-02-19T09:51:44;99636.78;;;20.48;34.70
78223;BME280;67497;53.058;21.618;2023-02-19T09:53:48;99644.97;;;20.43;34.77
78223;BME280;67497;53.058;21.618;2023-02-19T09:55:50;99639.63;;;20.42;34.86
78223;BME280;67497;53.058;21.618;2023-02-19T09:57:52;99641.41;;;20.36;35.02
78223;BME280;67497;53.058;21.618;2023-02-19T10:00:03;99638.88;;;20.35;35.01
78223;BME280;67497;53.058;21.618;2023-02-19T10:02:22;99643.97;;;20.38;34.83
78223;BME280;67497;53.058;21.618;2023-02-19T10:04:23;99638.16;;;20.39;34.86
78223;BME280;67497;53.058;21.618;2023-02-19T10:06:25;99637.09;;;20.40;34.67
78223;BME280;67497;53.058;21.618;2023-02-19T10:08:26;99639.56;;;20.48;34.69
78223;BME280;67497;53.058;21.618;2023-02-19T10:10:31;99637.84;;;20.47;34.47
78223;BME280;67497;53.058;21.618;2023-02-19T10:12:32;99633.53;;;20.51;34.70
78223;BME280;67497;53.058;21.618;2023-02-19T10:14:38;99645.19;;;20.60;34.41
78223;BME280;67497;53.058;21.618;2023-02-19T10:16:42;99648.72;;;20.67;34.30
78223;BME280;67497;53.058;21.618;2023-02-19T10:18:45;99650.78;;;20.71;34.10
78223;BME280;67497;53.058;21.618;2023-02-19T10:20:47;99647.31;;;20.76;34.39
78223;BME280;67497;53.058;21.618;2023-02-19T10:22:52;99646.69;;;20.74;34.43
78223;BME280;67497;53.058;21.618;2023-02-19T10:24:56;99650.72;;;20.78;34.13
78223;BME280;67497;53.058;21.618;2023-02-19T10:26:58;99640.91;;;20.75;34.31
78223;BME280;67497;53.058;21.618;2023-02-19T10:28:58;99647.31;;;20.76;34.25
78223;BME280;67497;53.058;21.618;2023-02-19T10:31:01;99637.50;;;20.73;34.12
78223;BME280;67497;53.058;21.618;2023-02-19T10:35:14;99644.00;;;20.67;34.48
78223;BME280;67497;53.058;21.618;2023-02-19T10:37:16;99661.47;;;20.74;34.30
78223;BME280;67497;53.058;21.618;2023-02-19T10:41:23;99666.03;;;20.69;34.28
78223;BME280;67497;53.058;21.618;2023-02-19T10:43:27;99648.81;;;20.60;34.56
78223;BME280;67497;53.058;21.618;2023-02-19T10:45:38;99662.25;;;20.63;34.35
78223;BME280;67497;53.058;21.618;2023-02-19T10:47:45;99652.44;;;20.61;34.56
78223;BME280;67497;53.058;21.618;2023-02-19T10:49:46;99644.41;;;20.53;34.64
78223;BME280;67497;53.058;21.618;2023-02-19T10:51:48;99663.81;;;20.59;34.43
78223;BME280;67497;53.058;21.618;2023-02-19T10:53:50;99643.81;;;20.51;34.74
78223;BME280;67497;53.058;21.618;2023-02-19T10:56:07;99653.38;;;20.55;34.71
78223;BME280;67497;53.058;21.618;2023-02-19T10:58:21;99646.19;;;20.47;34.29
78223;BME280;67497;53.058;21.618;2023-02-19T11:00:25;99650.69;;;20.48;34.83
78223;BME280;67497;53.058;21.618;2023-02-19T11:02:28;99646.66;;;20.44;34.89
78223;BME280;67497;53.058;21.618;2023-02-19T11:04:31;99652.38;;;20.49;34.50
78223;BME280;67497;53.058;21.618;2023-02-19T11:06:34;99645.50;;;20.52;34.52
78223;BME280;67497;53.058;21.618;2023-02-19T11:13:31;99631.50;;;20.58;34.25
78223;BME280;67497;53.058;21.618;2023-02-19T11:15:33;99638.44;;;20.67;34.17
78223;BME280;67497;53.058;21.618;2023-02-19T11:17:34;99624.38;;;20.62;34.20
78223;BME280;67497;53.058;21.618;2023-02-19T11:21:39;99641.25;;;20.79;34.03
78223;BME280;67497;53.058;21.618;2023-02-19T11:23:44;99647.81;;;20.84;34.17